sensor_id;sensor_type;location;lat;lon;timestamp;temperature;humidity
2489;DHT22;1255;48.716;9.124;2022-12-24T00:01:33;9.70;99.90
2489;DHT22;1255;48.716;9.124;2022-12-24T00:04:00;9.70;99.90
2489;DHT22;1255;48.716;9.124;2022-12-24T00:06:27;9.80;99.90
2489;DHT22;1255;48.716;9.124;2022-12-24T00:08:54;9.80;99.90
2489;DHT22;1255;48.716;9.124;2022-12-24T00:11:22;9.80;99.90
2489;DHT22;1255;48.716;9.124;2022-12-24T00:13:49;9.80;99.90
2489;DHT22;1255;48.716;9.124;2022-12-24T00:16:16;9.80;99.90
2489;DHT22;1255;48.716;9.124;2022-12-24T00:18:43;9.80;99.90
2489;DHT22;1255;48.716;9.124;2022-12-24T00:21:10;9.80;99.90
2489;DHT22;1255;48.716;9.124;2022-12-24T00:23:36;9.70;99.90
2489;DHT22;1255;48.716;9.124;2022-12-24T00:26:03;9.70;99.90
2489;DHT22;1255;48.716;9.124;2022-12-24T00:28:31;9.60;99.90
2489;DHT22;1255;48.716;9.124;2022-12-24T00:30:58;9.60;99.90
2489;DHT22;1255;48.716;9.124;2022-12-24T00:33:25;9.60;99.90
2489;DHT22;1255;48.716;9.124;2022-12-24T00:35:52;9.70;99.90
2489;DHT22;1255;48.716;9.124;2022-12-24T00:38:19;9.70;99.90
2489;DHT22;1255;48.716;9.124;2022-12-24T00:40:45;9.70;99.90
2489;DHT22;1255;48.716;9.124;2022-12-24T00:43:12;9.70;99.90
2489;DHT22;1255;48.716;9.124;2022-12-24T00:45:40;9.60;99.90
2489;DHT22;1255;48.716;9.124;2022-12-24T00:48:07;9.70;99.90
2489;DHT22;1255;48.716;9.124;2022-12-24T00:50:34;9.70;99.90
2489;DHT22;1255;48.716;9.124;2022-12-24T00:53:00;9.60;99.90
2489;DHT22;1255;48.716;9.124;2022-12-24T00:55:27;9.60;99.90
2489;DHT22;1255;48.716;9.124;2022-12-24T00:57:54;9.60;99.90
2489;DHT22;1255;48.716;9.124;2022-12-24T01:00:21;9.50;99.90
2489;DHT22;1255;48.716;9.124;2022-12-24T01:02:49;9.50;99.90
2489;DHT22;1255;48.716;9.124;2022-12-24T01:05:16;9.40;99.90
2489;DHT22;1255;48.716;9.124;2022-12-24T01:07:46;9.50;99.90
2489;DHT22;1255;48.716;9.124;2022-12-24T01:10:15;9.40;99.90
2489;DHT22;1255;48.716;9.124;2022-12-24T01:12:43;9.40;99.90
2489;DHT22;1255;48.716;9.124;2022-12-24T01:15:11;9.40;99.90
2489;DHT22;1255;48.716;9.124;2022-12-24T01:17:38;9.50;99.90
2489;DHT22;1255;48.716;9.124;2022-12-24T01:20:10;9.40;99.90
2489;DHT22;1255;48.716;9.124;2022-12-24T01:22:38;9.40;99.90
2489;DHT22;1255;48.716;9.124;2022-12-24T01:25:08;9.40;99.90
2489;DHT22;1255;48.716;9.124;2022-12-24T01:27:35;9.40;99.90
2489;DHT22;1255;48.716;9.124;2022-12-24T01:30:03;9.50;99.90
2489;DHT22;1255;48.716;9.124;2022-12-24T01:32:32;9.50;99.90
2489;DHT22;1255;48.716;9.124;2022-12-24T01:34:59;9.50;99.90
2489;DHT22;1255;48.716;9.124;2022-12-24T01:37:27;9.60;99.90
2489;DHT22;1255;48.716;9.124;2022-12-24T01:39:54;9.60;99.90
2489;DHT22;1255;48.716;9.124;2022-12-24T01:42:44;9.60;99.90
2489;DHT22;1255;48.716;9.124;2022-12-24T01:45:47;9.70;99.90
2489;DHT22;1255;48.716;9.124;2022-12-24T01:48:21;9.70;99.90
2489;DHT22;1255;48.716;9.124;2022-12-24T01:50:50;9.70;99.90
2489;DHT22;1255;48.716;9.124;2022-12-24T01:53:20;9.70;99.90
2489;DHT22;1255;48.716;9.124;2022-12-24T01:55:47;9.70;99.90
2489;DHT22;1255;48.716;9.124;2022-12-24T01:58:16;9.80;99.90
2489;DHT22;1255;48.716;9.124;2022-12-24T02:00:44;9.80;99.90
2489;DHT22;1255;48.716;9.124;2022-12-24T02:03:10;9.80;99.90
2489;DHT22;1255;48.716;9.124;2022-12-24T02:05:43;9.80;99.90
2489;DHT22;1255;48.716;9.124;2022-12-24T02:08:12;9.80;99.90
2489;DHT22;1255;48.716;9.124;2022-12-24T02:10:40;9.80;99.90
2489;DHT22;1255;48.716;9.124;2022-12-24T02:13:07;9.80;99.90
2489;DHT22;1255;48.716;9.124;2022-12-24T02:15:42;9.80;99.90
2489;DHT22;1255;48.716;9.124;2022-12-24T02:18:18;9.70;99.90
2489;DHT22;1255;48.716;9.124;2022-12-24T02:21:08;9.70;99.90
2489;DHT22;1255;48.716;9.124;2022-12-24T02:23:56;9.70;99.90
2489;DHT22;1255;48.716;9.124;2022-12-24T02:26:46;9.70;99.90
2489;DHT22;1255;48.716;9.124;2022-12-24T02:29:43;9.60;99.90
2489;DHT22;1255;48.716;9.124;2022-12-24T02:32:13;9.60;99.90
2489;DHT22;1255;48.716;9.124;2022-12-24T02:34:44;9.60;99.90
2489;DHT22;1255;48.716;9.124;2022-12-24T02:37:16;9.60;99.90
2489;DHT22;1255;48.716;9.124;2022-12-24T02:39:48;9.60;99.90
2489;DHT22;1255;48.716;9.124;2022-12-24T02:42:20;9.60;99.90
2489;DHT22;1255;48.716;9.124;2022-12-24T02:44:52;9.60;99.90
2489;DHT22;1255;48.716;9.124;2022-12-24T02:47:23;9.50;99.90
2489;DHT22;1255;48.716;9.124;2022-12-24T02:49:50;9.40;99.90
2489;DHT22;1255;48.716;9.124;2022-12-24T02:52:31;9.30;99.90
2489;DHT22;1255;48.716;9.124;2022-12-24T02:55:03;9.30;99.90
2489;DHT22;1255;48.716;9.124;2022-12-24T02:57:40;9.30;99.90
2489;DHT22;1255;48.716;9.124;2022-12-24T03:00:11;9.20;99.90
2489;DHT22;1255;48.716;9.124;2022-12-24T03:02:48;9.10;99.90
2489;DHT22;1255;48.716;9.124;2022-12-24T03:05:20;9.20;99.90
2489;DHT22;1255;48.716;9.124;2022-12-24T03:07:57;9.20;99.90
2489;DHT22;1255;48.716;9.124;2022-12-24T03:10:31;9.10;99.90
2489;DHT22;1255;48.716;9.124;2022-12-24T03:13:03;9.10;99.90
2489;DHT22;1255;48.716;9.124;2022-12-24T03:15:33;9.00;99.90
2489;DHT22;1255;48.716;9.124;2022-12-24T03:18:01;9.00;99.90
2489;DHT22;1255;48.716;9.124;2022-12-24T03:20:34;9.00;99.90
2489;DHT22;1255;48.716;9.124;2022-12-24T03:23:02;9.00;99.90
2489;DHT22;1255;48.716;9.124;2022-12-24T03:25:29;8.90;99.90
2489;DHT22;1255;48.716;9.124;2022-12-24T03:28:00;8.90;99.90
2489;DHT22;1255;48.716;9.124;2022-12-24T03:30:28;8.90;99.90
2489;DHT22;1255;48.716;9.124;2022-12-24T03:32:56;8.90;99.90
2489;DHT22;1255;48.716;9.124;2022-12-24T03:35:23;8.90;99.90
2489;DHT22;1255;48.716;9.124;2022-12-24T03:37:50;8.90;99.90
2489;DHT22;1255;48.716;9.124;2022-12-24T03:40:17;8.90;99.90
2489;DHT22;1255;48.716;9.124;2022-12-24T03:42:44;8.90;99.90
2489;DHT22;1255;48.716;9.124;2022-12-24T03:45:11;8.90;99.90
2489;DHT22;1255;48.716;9.124;2022-12-24T03:47:37;8.90;99.90
2489;DHT22;1255;48.716;9.124;2022-12-24T03:50:07;8.80;99.90
2489;DHT22;1255;48.716;9.124;2022-12-24T03:52:33;8.90;99.90
2489;DHT22;1255;48.716;9.124;2022-12-24T03:55:00;8.80;99.90
2489;DHT22;1255;48.716;9.124;2022-12-24T03:57:27;8.80;99.90
2489;DHT22;1255;48.716;9.124;2022-12-24T03:59:53;8.90;99.90
2489;DHT22;1255;48.716;9.124;2022-12-24T04:02:20;8.90;99.90
2489;DHT22;1255;48.716;9.124;2022-12-24T04:04:47;8.90;99.90
2489;DHT22;1255;48.716;9.124;2022-12-24T04:07:15;8.90;99.90
2489;DHT22;1255;48.716;9.124;2022-12-24T04:09:41;9.00;99.90
2489;DHT22;1255;48.716;9.124;2022-12-24T04:12:08;9.00;99.90
2489;DHT22;1255;48.716;9.124;2022-12-24T04:14:35;9.00;99.90
2489;DHT22;1255;48.716;9.124;2022-12-24T04:17:01;9.00;99.90
2489;DHT22;1255;48.716;9.124;2022-12-24T04:19:28;9.00;99.90
2489;DHT22;1255;48.716;9.124;2022-12-24T04:21:55;8.90;99.90
2489;DHT22;1255;48.716;9.124;2022-12-24T04:24:23;8.80;99.90
2489;DHT22;1255;48.716;9.124;2022-12-24T04:26:50;8.80;99.90
2489;DHT22;1255;48.716;9.124;2022-12-24T04:29:16;8.70;99.90
2489;DHT22;1255;48.716;9.124;2022-12-24T04:31:43;8.70;99.90
2489;DHT22;1255;48.716;9.124;2022-12-24T04:34:10;8.60;99.90
2489;DHT22;1255;48.716;9.124;2022-12-24T04:36:37;8.50;99.90
2489;DHT22;1255;48.716;9.124;2022-12-24T04:39:04;8.50;99.90
2489;DHT22;1255;48.716;9.124;2022-12-24T04:41:32;8.50;99.90
2489;DHT22;1255;48.716;9.124;2022-12-24T04:43:58;8.50;99.90
2489;DHT22;1255;48.716;9.124;2022-12-24T04:46:27;8.50;99.90
2489;DHT22;1255;48.716;9.124;2022-12-24T04:48:55;8.50;99.90
2489;DHT22;1255;48.716;9.124;2022-12-24T04:51:22;8.50;99.90
2489;DHT22;1255;48.716;9.124;2022-12-24T04:53:50;8.50;99.90
2489;DHT22;1255;48.716;9.124;2022-12-24T04:56:19;8.50;99.90
2489;DHT22;1255;48.716;9.124;2022-12-24T04:58:48;8.50;99.90
2489;DHT22;1255;48.716;9.124;2022-12-24T05:01:17;8.50;99.90
2489;DHT22;1255;48.716;9.124;2022-12-24T05:03:44;8.50;99.90
2489;DHT22;1255;48.716;9.124;2022-12-24T05:06:13;8.50;99.90
2489;DHT22;1255;48.716;9.124;2022-12-24T05:08:40;8.50;99.90
2489;DHT22;1255;48.716;9.124;2022-12-24T05:11:08;8.50;99.90
2489;DHT22;1255;48.716;9.124;2022-12-24T05:13:35;8.50;99.90
2489;DHT22;1255;48.716;9.124;2022-12-24T05:16:04;8.50;99.90
2489;DHT22;1255;48.716;9.124;2022-12-24T05:18:30;8.50;99.90
2489;DHT22;1255;48.716;9.124;2022-12-24T05:20:57;8.50;99.90
2489;DHT22;1255;48.716;9.124;2022-12-24T05:23:24;8.60;99.90
2489;DHT22;1255;48.716;9.124;2022-12-24T05:26:15;8.60;99.90
2489;DHT22;1255;48.716;9.124;2022-12-24T05:28:49;8.60;99.90
2489;DHT22;1255;48.716;9.124;2022-12-24T05:31:18;8.60;99.90
2489;DHT22;1255;48.716;9.124;2022-12-24T05:33:45;8.60;99.90
2489;DHT22;1255;48.716;9.124;2022-12-24T05:36:12;8.60;99.90
2489;DHT22;1255;48.716;9.124;2022-12-24T05:38:38;8.60;99.90
2489;DHT22;1255;48.716;9.124;2022-12-24T05:41:05;8.70;99.90
2489;DHT22;1255;48.716;9.124;2022-12-24T05:43:34;8.60;99.90
2489;DHT22;1255;48.716;9.124;2022-12-24T05:46:02;8.60;99.90
2489;DHT22;1255;48.716;9.124;2022-12-24T05:48:31;8.60;99.90
2489;DHT22;1255;48.716;9.124;2022-12-24T05:50:58;8.60;99.90
2489;DHT22;1255;48.716;9.124;2022-12-24T05:53:24;8.50;99.90
2489;DHT22;1255;48.716;9.124;2022-12-24T05:55:51;8.50;99.90
2489;DHT22;1255;48.716;9.124;2022-12-24T05:58:18;8.50;99.90
2489;DHT22;1255;48.716;9.124;2022-12-24T06:00:44;8.40;99.90
2489;DHT22;1255;48.716;9.124;2022-12-24T06:03:11;8.40;99.90
2489;DHT22;1255;48.716;9.124;2022-12-24T06:05:39;8.40;99.90
2489;DHT22;1255;48.716;9.124;2022-12-24T06:08:06;8.40;99.90
2489;DHT22;1255;48.716;9.124;2022-12-24T06:10:32;8.30;99.90
2489;DHT22;1255;48.716;9.124;2022-12-24T06:12:59;8.30;99.90
2489;DHT22;1255;48.716;9.124;2022-12-24T06:15:26;8.30;99.90
2489;DHT22;1255;48.716;9.124;2022-12-24T06:17:53;8.20;99.90
2489;DHT22;1255;48.716;9.124;2022-12-24T06:20:19;8.30;99.90
2489;DHT22;1255;48.716;9.124;2022-12-24T06:22:47;8.20;99.90
2489;DHT22;1255;48.716;9.124;2022-12-24T06:25:14;8.20;99.90
2489;DHT22;1255;48.716;9.124;2022-12-24T06:27:41;8.20;99.90
2489;DHT22;1255;48.716;9.124;2022-12-24T06:30:09;8.20;99.90
2489;DHT22;1255;48.716;9.124;2022-12-24T06:32:35;8.20;99.90
2489;DHT22;1255;48.716;9.124;2022-12-24T06:35:02;8.20;99.90
2489;DHT22;1255;48.716;9.124;2022-12-24T06:37:29;8.20;99.90
2489;DHT22;1255;48.716;9.124;2022-12-24T06:39:57;8.20;99.90
2489;DHT22;1255;48.716;9.124;2022-12-24T06:42:24;8.20;99.90
2489;DHT22;1255;48.716;9.124;2022-12-24T06:44:51;8.20;99.90
2489;DHT22;1255;48.716;9.124;2022-12-24T06:47:17;8.20;99.90
2489;DHT22;1255;48.716;9.124;2022-12-24T06:49:44;8.20;99.90
2489;DHT22;1255;48.716;9.124;2022-12-24T06:52:10;8.20;99.90
2489;DHT22;1255;48.716;9.124;2022-12-24T06:54:37;8.30;99.90
2489;DHT22;1255;48.716;9.124;2022-12-24T06:57:05;8.30;99.90
2489;DHT22;1255;48.716;9.124;2022-12-24T06:59:32;8.40;99.90
2489;DHT22;1255;48.716;9.124;2022-12-24T07:01:59;8.40;99.90
2489;DHT22;1255;48.716;9.124;2022-12-24T07:04:26;8.40;99.90
2489;DHT22;1255;48.716;9.124;2022-12-24T07:06:52;8.40;99.90
2489;DHT22;1255;48.716;9.124;2022-12-24T07:09:19;8.50;99.90
2489;DHT22;1255;48.716;9.124;2022-12-24T07:11:46;8.50;99.90
2489;DHT22;1255;48.716;9.124;2022-12-24T07:14:14;8.50;99.90
2489;DHT22;1255;48.716;9.124;2022-12-24T07:16:40;8.50;99.90
2489;DHT22;1255;48.716;9.124;2022-12-24T07:19:07;8.50;99.90
2489;DHT22;1255;48.716;9.124;2022-12-24T07:21:34;8.50;99.90
2489;DHT22;1255;48.716;9.124;2022-12-24T07:24:00;8.50;99.90
2489;DHT22;1255;48.716;9.124;2022-12-24T07:26:27;8.50;99.90
2489;DHT22;1255;48.716;9.124;2022-12-24T07:28:54;8.50;99.90
2489;DHT22;1255;48.716;9.124;2022-12-24T07:31:22;8.50;99.90
2489;DHT22;1255;48.716;9.124;2022-12-24T07:33:49;8.60;99.90
2489;DHT22;1255;48.716;9.124;2022-12-24T07:36:18;8.60;99.90
2489;DHT22;1255;48.716;9.124;2022-12-24T07:38:45;8.60;99.90
2489;DHT22;1255;48.716;9.124;2022-12-24T07:41:12;8.60;99.90
2489;DHT22;1255;48.716;9.124;2022-12-24T07:43:39;8.50;99.90
2489;DHT22;1255;48.716;9.124;2022-12-24T07:46:06;8.60;99.90
2489;DHT22;1255;48.716;9.124;2022-12-24T07:48:34;8.60;99.90
2489;DHT22;1255;48.716;9.124;2022-12-24T07:51:01;8.60;99.90
2489;DHT22;1255;48.716;9.124;2022-12-24T07:53:29;8.60;99.90
2489;DHT22;1255;48.716;9.124;2022-12-24T07:55:56;8.60;99.90
2489;DHT22;1255;48.716;9.124;2022-12-24T07:58:23;8.50;99.90
2489;DHT22;1255;48.716;9.124;2022-12-24T08:00:54;8.50;99.90
2489;DHT22;1255;48.716;9.124;2022-12-24T08:03:21;8.50;99.90
2489;DHT22;1255;48.716;9.124;2022-12-24T08:05:49;8.50;99.90
2489;DHT22;1255;48.716;9.124;2022-12-24T08:08:18;8.50;99.90
2489;DHT22;1255;48.716;9.124;2022-12-24T08:10:45;8.50;99.90
2489;DHT22;1255;48.716;9.124;2022-12-24T08:13:13;8.50;99.90
2489;DHT22;1255;48.716;9.124;2022-12-24T08:15:40;8.50;99.90
2489;DHT22;1255;48.716;9.124;2022-12-24T08:18:08;8.50;99.90
2489;DHT22;1255;48.716;9.124;2022-12-24T08:20:37;8.50;99.90
2489;DHT22;1255;48.716;9.124;2022-12-24T08:23:09;8.50;99.90
2489;DHT22;1255;48.716;9.124;2022-12-24T08:25:36;8.50;99.90
2489;DHT22;1255;48.716;9.124;2022-12-24T08:28:04;8.60;99.90
2489;DHT22;1255;48.716;9.124;2022-12-24T08:30:30;8.60;99.90
2489;DHT22;1255;48.716;9.124;2022-12-24T08:33:00;8.60;99.90
2489;DHT22;1255;48.716;9.124;2022-12-24T08:35:27;8.70;99.90
2489;DHT22;1255;48.716;9.124;2022-12-24T08:37:53;8.70;99.90
2489;DHT22;1255;48.716;9.124;2022-12-24T08:40:21;8.80;99.90
2489;DHT22;1255;48.716;9.124;2022-12-24T08:42:48;8.90;99.90
2489;DHT22;1255;48.716;9.124;2022-12-24T08:45:15;8.90;99.90
2489;DHT22;1255;48.716;9.124;2022-12-24T08:47:42;8.90;99.90
2489;DHT22;1255;48.716;9.124;2022-12-24T08:50:10;9.00;99.90
2489;DHT22;1255;48.716;9.124;2022-12-24T08:52:37;9.00;99.90
2489;DHT22;1255;48.716;9.124;2022-12-24T08:55:04;8.90;99.90
2489;DHT22;1255;48.716;9.124;2022-12-24T08:57:34;8.80;99.90
2489;DHT22;1255;48.716;9.124;2022-12-24T09:00:00;8.70;99.90
2489;DHT22;1255;48.716;9.124;2022-12-24T09:02:27;8.70;99.90
2489;DHT22;1255;48.716;9.124;2022-12-24T09:04:54;8.70;99.90
2489;DHT22;1255;48.716;9.124;2022-12-24T09:07:20;8.70;99.90
2489;DHT22;1255;48.716;9.124;2022-12-24T09:09:47;8.80;99.90
2489;DHT22;1255;48.716;9.124;2022-12-24T09:12:14;8.80;99.90
2489;DHT22;1255;48.716;9.124;2022-12-24T09:14:42;8.90;99.90
2489;DHT22;1255;48.716;9.124;2022-12-24T09:17:09;8.90;99.90
2489;DHT22;1255;48.716;9.124;2022-12-24T09:19:36;9.00;99.90
2489;DHT22;1255;48.716;9.124;2022-12-24T09:22:03;9.10;99.90
2489;DHT22;1255;48.716;9.124;2022-12-24T09:24:29;9.20;99.90
2489;DHT22;1255;48.716;9.124;2022-12-24T09:26:56;9.70;99.90
2489;DHT22;1255;48.716;9.124;2022-12-24T09:29:24;10.30;99.90
2489;DHT22;1255;48.716;9.124;2022-12-24T09:31:52;11.60;99.90
2489;DHT22;1255;48.716;9.124;2022-12-24T09:34:19;12.40;99.90
2489;DHT22;1255;48.716;9.124;2022-12-24T09:36:46;12.70;99.90
2489;DHT22;1255;48.716;9.124;2022-12-24T09:39:13;12.50;99.90
2489;DHT22;1255;48.716;9.124;2022-12-24T09:41:46;12.40;99.90
2489;DHT22;1255;48.716;9.124;2022-12-24T09:44:22;12.10;99.90
2489;DHT22;1255;48.716;9.124;2022-12-24T09:46:52;11.80;99.90
2489;DHT22;1255;48.716;9.124;2022-12-24T09:49:22;11.70;99.90
2489;DHT22;1255;48.716;9.124;2022-12-24T09:51:52;11.80;99.90
2489;DHT22;1255;48.716;9.124;2022-12-24T09:54:23;11.80;99.90
2489;DHT22;1255;48.716;9.124;2022-12-24T09:56:53;11.60;99.90
2489;DHT22;1255;48.716;9.124;2022-12-24T09:59:23;11.40;99.90
2489;DHT22;1255;48.716;9.124;2022-12-24T10:01:53;12.30;99.90
2489;DHT22;1255;48.716;9.124;2022-12-24T10:04:22;13.70;99.90
2489;DHT22;1255;48.716;9.124;2022-12-24T10:07:00;15.00;99.90
2489;DHT22;1255;48.716;9.124;2022-12-24T10:09:38;17.00;99.90
2489;DHT22;1255;48.716;9.124;2022-12-24T10:12:12;18.60;99.90
2489;DHT22;1255;48.716;9.124;2022-12-24T10:14:54;18.40;99.90
2489;DHT22;1255;48.716;9.124;2022-12-24T10:17:48;18.20;99.90
2489;DHT22;1255;48.716;9.124;2022-12-24T10:20:29;17.10;99.90
2489;DHT22;1255;48.716;9.124;2022-12-24T10:23:03;16.20;99.90
2489;DHT22;1255;48.716;9.124;2022-12-24T10:25:39;15.60;99.90
2489;DHT22;1255;48.716;9.124;2022-12-24T10:28:13;14.70;99.90
2489;DHT22;1255;48.716;9.124;2022-12-24T10:30:41;14.90;99.90
2489;DHT22;1255;48.716;9.124;2022-12-24T10:33:16;14.60;99.90
2489;DHT22;1255;48.716;9.124;2022-12-24T10:35:47;14.40;99.90
2489;DHT22;1255;48.716;9.124;2022-12-24T10:38:15;14.10;99.90
2489;DHT22;1255;48.716;9.124;2022-12-24T10:40:43;13.80;99.90
2489;DHT22;1255;48.716;9.124;2022-12-24T10:43:14;13.30;99.90
2489;DHT22;1255;48.716;9.124;2022-12-24T10:45:44;12.90;99.90
2489;DHT22;1255;48.716;9.124;2022-12-24T10:48:20;12.70;99.90
2489;DHT22;1255;48.716;9.124;2022-12-24T10:50:53;12.50;99.90
2489;DHT22;1255;48.716;9.124;2022-12-24T10:53:26;12.60;99.90
2489;DHT22;1255;48.716;9.124;2022-12-24T10:56:04;12.70;99.90
2489;DHT22;1255;48.716;9.124;2022-12-24T10:58:32;12.80;99.90
2489;DHT22;1255;48.716;9.124;2022-12-24T11:00:59;13.00;99.90
2489;DHT22;1255;48.716;9.124;2022-12-24T11:03:31;12.80;99.90
2489;DHT22;1255;48.716;9.124;2022-12-24T11:06:04;12.70;99.90
2489;DHT22;1255;48.716;9.124;2022-12-24T11:08:32;12.70;99.90
2489;DHT22;1255;48.716;9.124;2022-12-24T11:11:01;12.70;99.90
2489;DHT22;1255;48.716;9.124;2022-12-24T11:13:30;12.70;99.90
2489;DHT22;1255;48.716;9.124;2022-12-24T11:16:04;12.40;99.90
2489;DHT22;1255;48.716;9.124;2022-12-24T11:18:34;12.30;99.90
2489;DHT22;1255;48.716;9.124;2022-12-24T11:21:02;12.20;99.90
2489;DHT22;1255;48.716;9.124;2022-12-24T11:23:30;12.20;99.90
2489;DHT22;1255;48.716;9.124;2022-12-24T11:25:57;12.10;99.90
2489;DHT22;1255;48.716;9.124;2022-12-24T11:28:26;12.00;99.90
2489;DHT22;1255;48.716;9.124;2022-12-24T11:30:59;11.90;99.90
2489;DHT22;1255;48.716;9.124;2022-12-24T11:33:26;11.70;99.90
2489;DHT22;1255;48.716;9.124;2022-12-24T11:35:58;11.70;99.90
2489;DHT22;1255;48.716;9.124;2022-12-24T11:38:26;11.70;99.90
2489;DHT22;1255;48.716;9.124;2022-12-24T11:40:59;11.90;99.90
2489;DHT22;1255;48.716;9.124;2022-12-24T11:43:37;12.00;99.90
2489;DHT22;1255;48.716;9.124;2022-12-24T11:46:17;12.10;99.90
2489;DHT22;1255;48.716;9.124;2022-12-24T11:48:45;12.10;99.90
2489;DHT22;1255;48.716;9.124;2022-12-24T11:51:22;12.20;99.90
2489;DHT22;1255;48.716;9.124;2022-12-24T11:53:52;12.30;99.90
2489;DHT22;1255;48.716;9.124;2022-12-24T11:56:28;12.40;99.90
2489;DHT22;1255;48.716;9.124;2022-12-24T11:59:01;12.40;99.90
2489;DHT22;1255;48.716;9.124;2022-12-24T12:01:33;12.50;99.90
2489;DHT22;1255;48.716;9.124;2022-12-24T12:04:04;12.50;99.90
2489;DHT22;1255;48.716;9.124;2022-12-24T12:06:37;12.60;99.90
2489;DHT22;1255;48.716;9.124;2022-12-24T12:09:10;12.60;99.90
2489;DHT22;1255;48.716;9.124;2022-12-24T12:11:39;12.70;99.90
2489;DHT22;1255;48.716;9.124;2022-12-24T12:14:15;12.90;99.90
2489;DHT22;1255;48.716;9.124;2022-12-24T12:16:48;13.10;99.90
2489;DHT22;1255;48.716;9.124;2022-12-24T12:19:32;13.20;99.90
2489;DHT22;1255;48.716;9.124;2022-12-24T12:22:04;13.30;99.90
2489;DHT22;1255;48.716;9.124;2022-12-24T12:24:35;13.30;99.90
2489;DHT22;1255;48.716;9.124;2022-12-24T12:27:07;13.50;99.90
2489;DHT22;1255;48.716;9.124;2022-12-24T12:29:42;13.80;99.90
2489;DHT22;1255;48.716;9.124;2022-12-24T12:32:16;14.20;99.90
2489;DHT22;1255;48.716;9.124;2022-12-24T12:35:04;14.70;99.90
2489;DHT22;1255;48.716;9.124;2022-12-24T12:37:37;15.30;99.90
2489;DHT22;1255;48.716;9.124;2022-12-24T12:40:12;15.20;99.90
2489;DHT22;1255;48.716;9.124;2022-12-24T12:42:47;15.00;99.90
2489;DHT22;1255;48.716;9.124;2022-12-24T12:45:32;14.70;99.90
2489;DHT22;1255;48.716;9.124;2022-12-24T12:48:19;14.40;99.90
2489;DHT22;1255;48.716;9.124;2022-12-24T12:50:53;14.00;99.90
2489;DHT22;1255;48.716;9.124;2022-12-24T12:53:41;13.90;99.90
2489;DHT22;1255;48.716;9.124;2022-12-24T12:56:19;14.00;99.90
2489;DHT22;1255;48.716;9.124;2022-12-24T12:58:52;13.90;99.90
2489;DHT22;1255;48.716;9.124;2022-12-24T13:01:29;13.70;99.90
2489;DHT22;1255;48.716;9.124;2022-12-24T13:07:15;13.40;99.90
2489;DHT22;1255;48.716;9.124;2022-12-24T13:09:56;13.20;99.90
2489;DHT22;1255;48.716;9.124;2022-12-24T13:12:56;13.00;99.90
2489;DHT22;1255;48.716;9.124;2022-12-24T13:18:30;13.10;99.90
2489;DHT22;1255;48.716;9.124;2022-12-24T13:20:58;13.40;99.90
2489;DHT22;1255;48.716;9.124;2022-12-24T13:23:26;13.60;99.90
2489;DHT22;1255;48.716;9.124;2022-12-24T13:25:56;13.70;99.90
2489;DHT22;1255;48.716;9.124;2022-12-24T13:28:42;13.80;99.90
2489;DHT22;1255;48.716;9.124;2022-12-24T13:31:27;13.80;99.90
2489;DHT22;1255;48.716;9.124;2022-12-24T13:34:02;13.80;99.90
2489;DHT22;1255;48.716;9.124;2022-12-24T13:36:59;13.70;99.90
2489;DHT22;1255;48.716;9.124;2022-12-24T13:39:27;13.60;99.90
2489;DHT22;1255;48.716;9.124;2022-12-24T13:41:55;13.40;99.90
2489;DHT22;1255;48.716;9.124;2022-12-24T13:44:23;13.30;99.90
2489;DHT22;1255;48.716;9.124;2022-12-24T13:46:53;13.10;99.90
2489;DHT22;1255;48.716;9.124;2022-12-24T13:49:27;12.90;99.90
2489;DHT22;1255;48.716;9.124;2022-12-24T13:52:16;12.80;99.90
2489;DHT22;1255;48.716;9.124;2022-12-24T13:54:47;12.70;99.90
2489;DHT22;1255;48.716;9.124;2022-12-24T13:57:30;12.60;99.90
2489;DHT22;1255;48.716;9.124;2022-12-24T14:00:00;12.50;99.90
2489;DHT22;1255;48.716;9.124;2022-12-24T14:02:31;12.40;99.90
2489;DHT22;1255;48.716;9.124;2022-12-24T14:05:02;12.40;99.90
2489;DHT22;1255;48.716;9.124;2022-12-24T14:07:30;12.40;99.90
2489;DHT22;1255;48.716;9.124;2022-12-24T14:09:57;12.40;99.90
2489;DHT22;1255;48.716;9.124;2022-12-24T14:12:46;12.40;99.90
2489;DHT22;1255;48.716;9.124;2022-12-24T14:15:44;12.30;99.90
2489;DHT22;1255;48.716;9.124;2022-12-24T14:18:16;12.20;99.90
2489;DHT22;1255;48.716;9.124;2022-12-24T14:20:42;12.10;99.90
2489;DHT22;1255;48.716;9.124;2022-12-24T14:23:30;12.10;99.90
2489;DHT22;1255;48.716;9.124;2022-12-24T14:26:00;12.00;99.90
2489;DHT22;1255;48.716;9.124;2022-12-24T14:28:33;12.10;99.90
2489;DHT22;1255;48.716;9.124;2022-12-24T14:31:00;12.10;99.90
2489;DHT22;1255;48.716;9.124;2022-12-24T14:33:28;12.00;99.90
2489;DHT22;1255;48.716;9.124;2022-12-24T14:35:55;12.00;99.90
2489;DHT22;1255;48.716;9.124;2022-12-24T14:38:22;11.90;99.90
2489;DHT22;1255;48.716;9.124;2022-12-24T14:40:53;11.90;99.90
2489;DHT22;1255;48.716;9.124;2022-12-24T14:43:25;11.90;99.90
2489;DHT22;1255;48.716;9.124;2022-12-24T14:46:02;11.80;99.90
2489;DHT22;1255;48.716;9.124;2022-12-24T14:48:35;11.70;99.90
2489;DHT22;1255;48.716;9.124;2022-12-24T14:51:10;11.60;99.90
2489;DHT22;1255;48.716;9.124;2022-12-24T14:53:53;11.40;99.90
2489;DHT22;1255;48.716;9.124;2022-12-24T14:56:22;11.30;99.90
2489;DHT22;1255;48.716;9.124;2022-12-24T14:58:50;11.20;99.90
2489;DHT22;1255;48.716;9.124;2022-12-24T15:01:21;11.20;99.90
2489;DHT22;1255;48.716;9.124;2022-12-24T15:04:03;11.10;99.90
2489;DHT22;1255;48.716;9.124;2022-12-24T15:06:33;11.10;99.90
2489;DHT22;1255;48.716;9.124;2022-12-24T15:09:00;11.00;99.90
2489;DHT22;1255;48.716;9.124;2022-12-24T15:11:27;11.00;99.90
2489;DHT22;1255;48.716;9.124;2022-12-24T15:13:56;10.90;99.90
2489;DHT22;1255;48.716;9.124;2022-12-24T15:16:29;10.90;99.90
2489;DHT22;1255;48.716;9.124;2022-12-24T15:18:59;10.80;99.90
2489;DHT22;1255;48.716;9.124;2022-12-24T15:21:29;10.70;99.90
2489;DHT22;1255;48.716;9.124;2022-12-24T15:23:57;10.60;99.90
2489;DHT22;1255;48.716;9.124;2022-12-24T15:26:25;10.50;99.90
2489;DHT22;1255;48.716;9.124;2022-12-24T15:28:54;10.50;99.90
2489;DHT22;1255;48.716;9.124;2022-12-24T15:31:23;10.40;99.90
2489;DHT22;1255;48.716;9.124;2022-12-24T15:33:53;10.30;99.90
2489;DHT22;1255;48.716;9.124;2022-12-24T15:36:25;10.20;99.90
2489;DHT22;1255;48.716;9.124;2022-12-24T15:38:53;10.20;99.90
2489;DHT22;1255;48.716;9.124;2022-12-24T15:41:23;10.10;99.90
2489;DHT22;1255;48.716;9.124;2022-12-24T15:43:52;10.10;99.90
2489;DHT22;1255;48.716;9.124;2022-12-24T15:46:21;10.10;99.90
2489;DHT22;1255;48.716;9.124;2022-12-24T15:48:49;10.00;99.90
2489;DHT22;1255;48.716;9.124;2022-12-24T15:51:26;10.00;99.90
2489;DHT22;1255;48.716;9.124;2022-12-24T15:53:57;10.00;99.90
2489;DHT22;1255;48.716;9.124;2022-12-24T15:56:35;10.00;99.90
2489;DHT22;1255;48.716;9.124;2022-12-24T15:59:25;9.90;99.90
2489;DHT22;1255;48.716;9.124;2022-12-24T16:01:53;9.90;99.90
2489;DHT22;1255;48.716;9.124;2022-12-24T16:04:22;9.90;99.90
2489;DHT22;1255;48.716;9.124;2022-12-24T16:06:55;9.90;99.90
2489;DHT22;1255;48.716;9.124;2022-12-24T16:09:42;9.80;99.90
2489;DHT22;1255;48.716;9.124;2022-12-24T16:12:15;9.80;99.90
2489;DHT22;1255;48.716;9.124;2022-12-24T16:14:46;9.70;99.90
2489;DHT22;1255;48.716;9.124;2022-12-24T16:17:19;9.70;99.90
2489;DHT22;1255;48.716;9.124;2022-12-24T16:19:48;9.70;99.90
2489;DHT22;1255;48.716;9.124;2022-12-24T16:22:19;9.60;99.90
2489;DHT22;1255;48.716;9.124;2022-12-24T16:25:00;9.50;99.90
2489;DHT22;1255;48.716;9.124;2022-12-24T16:27:27;9.50;99.90
2489;DHT22;1255;48.716;9.124;2022-12-24T16:29:54;9.40;99.90
2489;DHT22;1255;48.716;9.124;2022-12-24T16:32:29;9.40;99.90
2489;DHT22;1255;48.716;9.124;2022-12-24T16:34:57;9.30;99.90
2489;DHT22;1255;48.716;9.124;2022-12-24T16:37:25;9.30;99.90
2489;DHT22;1255;48.716;9.124;2022-12-24T16:39:52;9.20;99.90